createdAt,value
2022-09-23T00:02:27.525Z,63.74
2022-09-23T00:04:59.011Z,64.12
2022-09-23T00:07:28.100Z,64.28
2022-09-23T00:09:57.050Z,64.30
2022-09-23T00:12:26.360Z,64.04
2022-09-23T00:14:54.296Z,64.17
2022-09-23T00:17:26.251Z,64.03
2022-09-23T00:19:55.574Z,64.08
2022-09-23T00:22:23.135Z,64.53
2022-09-23T00:24:50.281Z,63.79
2022-09-23T00:27:34.256Z,64.23
2022-09-23T00:30:07.157Z,64.91
2022-09-23T00:32:36.636Z,64.50
2022-09-23T00:35:36.503Z,64.15
2022-09-23T00:38:28.394Z,64.29
2022-09-23T00:41:06.820Z,64.57
2022-09-23T00:43:40.766Z,64.37
2022-09-23T00:46:13.995Z,64.49
2022-09-23T00:48:42.790Z,64.29
2022-09-23T00:51:18.957Z,64.08
2022-09-23T00:53:51.560Z,64.63
2022-09-23T00:56:24.974Z,64.10
2022-09-23T00:59:04.586Z,64.35
2022-09-23T01:01:37.670Z,64.73
2022-09-23T01:04:13.523Z,65.08
2022-09-23T01:06:53.424Z,64.66
2022-09-23T01:09:26.874Z,64.64
2022-09-23T01:12:27.877Z,64.63
2022-09-23T01:14:57.529Z,64.60
2022-09-23T01:17:40.157Z,64.57
2022-09-23T01:20:25.897Z,64.80
2022-09-23T01:23:17.752Z,64.86
2022-09-23T01:26:09.962Z,64.54
2022-09-23T01:29:05.060Z,64.55
2022-09-23T01:32:10.348Z,64.60
2022-09-23T01:35:20.272Z,65.47
2022-09-23T01:38:07.459Z,65.05
2022-09-23T01:40:43.553Z,64.73
2022-09-23T01:43:32.634Z,64.96
2022-09-23T01:46:07.383Z,64.92
2022-09-23T01:48:41.065Z,65.00
2022-09-23T01:51:35.727Z,65.15
2022-09-23T01:54:38.943Z,65.81
2022-09-23T01:57:46.848Z,65.74
2022-09-23T02:03:14.694Z,65.83
2022-09-23T02:09:33.330Z,65.40
2022-09-23T02:12:06.013Z,65.20
2022-09-23T02:14:48.165Z,65.29
2022-09-23T02:17:18.805Z,65.62
2022-09-23T02:19:48.733Z,65.21
2022-09-23T02:22:18.931Z,65.96
2022-09-23T02:24:46.108Z,65.37
2022-09-23T02:27:36.870Z,66.18
2022-09-23T02:30:11.736Z,65.75
2022-09-23T02:32:51.546Z,65.93
2022-09-23T02:35:34.154Z,66.44
2022-09-23T02:38:09.910Z,66.07
2022-09-23T02:40:41.279Z,65.97
2022-09-23T02:43:13.040Z,66.10
2022-09-23T02:45:41.715Z,65.31
2022-09-23T02:48:14.939Z,65.88
2022-09-23T02:50:42.221Z,66.63
2022-09-23T02:53:09.603Z,66.19
2022-09-23T02:55:36.781Z,66.32
2022-09-23T02:58:04.084Z,66.05
2022-09-23T03:00:50.302Z,66.10
2022-09-23T03:03:30.192Z,66.37
2022-09-23T03:05:58.461Z,65.91
2022-09-23T03:08:30.630Z,66.44
2022-09-23T03:11:04.485Z,65.75
2022-09-23T03:13:38.771Z,66.44
2022-09-23T03:16:15.006Z,66.44
2022-09-23T03:18:43.693Z,66.63
2022-09-23T03:21:49.574Z,66.69
2022-09-23T03:24:16.998Z,66.57
2022-09-23T03:26:45.754Z,66.20
2022-09-23T03:29:12.842Z,66.07
2022-09-23T03:31:40.399Z,66.64
2022-09-23T03:34:29.769Z,66.74
2022-09-23T03:37:21.123Z,66.57
2022-09-23T03:39:59.916Z,66.07
2022-09-23T03:42:30.243Z,66.04
2022-09-23T03:44:57.636Z,66.57
2022-09-23T03:47:28.033Z,66.29
2022-09-23T03:49:57.130Z,66.67
2022-09-23T03:52:24.842Z,66.61
2022-09-23T03:54:53.786Z,66.23
2022-09-23T03:57:23.898Z,66.21
2022-09-23T03:59:53.401Z,66.74
2022-09-23T04:02:20.971Z,66.47
2022-09-23T04:04:48.467Z,65.69
2022-09-23T04:07:15.897Z,66.07
2022-09-23T04:09:42.913Z,66.14
2022-09-23T04:12:13.375Z,66.35
2022-09-23T04:14:40.596Z,66.75
2022-09-23T04:17:07.728Z,66.79
2022-09-23T04:29:06.569Z,66.43
2022-09-23T04:31:34.206Z,67.23
2022-09-23T04:34:07.050Z,66.52
2022-09-23T04:36:37.992Z,66.45
2022-09-23T04:39:05.068Z,66.53
2022-09-23T04:41:32.221Z,66.51
2022-09-23T04:43:59.336Z,66.29
2022-09-23T04:46:26.522Z,66.94
2022-09-23T04:48:53.688Z,66.23
2022-09-23T04:51:21.890Z,66.86
2022-09-23T04:53:49.749Z,66.55
2022-09-23T04:56:19.054Z,66.70
2022-09-23T04:58:47.076Z,66.78
2022-09-23T05:01:17.260Z,66.46
2022-09-23T05:03:45.638Z,66.57
2022-09-23T05:06:16.847Z,66.85
2022-09-23T05:08:50.450Z,66.83
2022-09-23T05:11:19.025Z,66.61
2022-09-23T05:13:50.678Z,66.46
2022-09-23T05:16:18.173Z,67.13
2022-09-23T05:18:45.757Z,67.12
2022-09-23T05:21:17.258Z,66.97
2022-09-23T05:23:48.059Z,67.31
2022-09-23T05:26:16.629Z,67.14
2022-09-23T05:28:46.177Z,67.50
2022-09-23T05:31:21.048Z,67.63
2022-09-23T05:33:54.092Z,67.43
2022-09-23T05:36:24.428Z,67.47
2022-09-23T05:38:51.821Z,66.95
2022-09-23T05:41:29.949Z,67.33
2022-09-23T05:44:11.287Z,67.29
2022-09-23T05:46:56.953Z,67.19
2022-09-23T05:58:29.906Z,68.03
2022-09-23T06:00:59.669Z,68.22
2022-09-23T06:03:26.927Z,68.28
2022-09-23T06:05:56.446Z,67.96
2022-09-23T06:08:27.564Z,68.01
2022-09-23T06:10:54.986Z,67.77
2022-09-23T06:13:22.131Z,68.02
2022-09-23T06:15:49.347Z,69.08
2022-09-23T06:18:19.457Z,68.65
2022-09-23T06:20:49.555Z,68.69
2022-09-23T06:23:16.678Z,68.63
2022-09-23T06:25:43.940Z,68.38
2022-09-23T06:28:12.652Z,68.86
2022-09-23T06:30:42.847Z,68.52
2022-09-23T06:33:10.337Z,68.47
2022-09-23T06:35:37.474Z,68.68
2022-09-23T06:38:05.124Z,69.08
2022-09-23T06:40:32.808Z,69.62
2022-09-23T06:43:00.710Z,69.13
2022-09-23T06:45:30.893Z,69.05
2022-09-23T06:47:59.921Z,68.68
2022-09-23T06:50:27.661Z,68.60
2022-09-23T06:53:01.170Z,68.95
2022-09-23T06:55:28.287Z,69.02
2022-09-23T06:57:57.947Z,69.01
2022-09-23T07:00:28.965Z,69.23
2022-09-23T07:02:58.349Z,69.28
2022-09-23T07:05:25.475Z,68.94
2022-09-23T07:10:36.567Z,69.75
2022-09-23T07:13:06.436Z,69.08
2022-09-23T07:15:36.637Z,69.31
2022-09-23T07:18:06.392Z,69.26
2022-09-23T07:20:44.332Z,69.48
2022-09-23T07:23:13.755Z,69.36
2022-09-23T07:25:43.854Z,69.41
2022-09-23T07:28:12.569Z,69.26
2022-09-23T07:30:51.308Z,69.15
2022-09-23T07:33:31.637Z,69.20
2022-09-23T07:40:40.039Z,70.38
2022-09-23T07:43:10.033Z,69.86
2022-09-23T07:45:39.059Z,69.72
2022-09-23T07:48:06.286Z,69.94
2022-09-23T07:50:33.780Z,69.94
2022-09-23T07:53:03.262Z,69.94
2022-09-23T07:55:30.478Z,70.18
2022-09-23T07:58:01.587Z,69.80
2022-09-23T08:00:33.945Z,70.07
2022-09-23T08:03:01.044Z,70.43
2022-09-23T08:05:31.303Z,70.21
2022-09-23T08:08:01.343Z,69.42
2022-09-23T08:43:35.449Z,70.06
2022-09-23T08:46:10.300Z,70.02
2022-09-23T08:48:44.778Z,69.37
2022-09-23T08:51:14.745Z,69.34
2022-09-23T08:53:43.843Z,69.28
2022-09-23T08:59:20.463Z,68.77
2022-09-23T09:01:53.295Z,68.22
2022-09-23T09:04:38.149Z,68.54
2022-09-23T09:10:40.609Z,68.02
2022-09-23T09:13:22.794Z,67.96
2022-09-23T09:16:59.502Z,66.82
2022-09-23T09:19:52.425Z,67.07
2022-09-23T09:22:37.918Z,67.22
2022-09-23T09:25:42.681Z,66.16
2022-09-23T09:28:24.862Z,66.20
2022-09-23T09:30:57.735Z,66.31
2022-09-23T09:33:39.615Z,66.23
2022-09-23T09:36:09.256Z,66.03
2022-09-23T09:38:36.907Z,65.92
2022-09-23T09:41:17.214Z,64.74
2022-09-23T09:43:45.717Z,64.87
2022-09-23T09:46:37.071Z,64.21
2022-09-23T09:49:29.144Z,64.13
2022-09-23T09:52:20.779Z,62.77
2022-09-23T09:54:49.772Z,63.81
2022-09-23T09:57:35.173Z,62.95
2022-09-23T10:00:25.957Z,62.72
2022-09-23T10:03:02.834Z,62.26
2022-09-23T10:06:01.547Z,62.65
2022-09-23T10:09:04.061Z,61.73
2022-09-23T10:12:17.125Z,61.85
2022-09-23T10:21:40.043Z,61.89
2022-09-23T10:24:08.935Z,61.29
2022-09-23T10:29:50.743Z,60.29
2022-09-23T10:33:21.169Z,59.11
2022-09-23T10:37:13.118Z,59.02
2022-09-23T10:39:53.034Z,58.47
2022-09-23T10:42:58.786Z,56.66
2022-09-23T10:53:29.822Z,56.12
2022-09-23T10:56:10.739Z,56.62
2022-09-23T10:58:55.660Z,55.77
2022-09-23T11:51:14.701Z,46.21
2022-09-23T13:24:26.783Z,45.82
2022-09-23T13:30:11.078Z,46.49
2022-09-23T13:33:14.565Z,46.53
2022-09-23T13:42:30.289Z,47.40
2022-09-23T13:45:01.927Z,47.79
2022-09-23T13:47:34.193Z,48.05
2022-09-23T13:53:03.058Z,47.93
2022-09-23T13:55:31.540Z,48.20
2022-09-23T14:08:14.476Z,49.29
2022-09-23T14:10:50.212Z,48.75
2022-09-23T14:13:39.102Z,48.86
2022-09-23T14:16:09.065Z,48.83
2022-09-23T14:19:17.390Z,49.13
2022-09-23T14:25:04.044Z,49.75
2022-09-23T14:35:17.474Z,50.26
2022-09-23T14:38:29.968Z,50.21
2022-09-23T14:41:24.479Z,50.00
2022-09-23T14:44:14.438Z,50.20
2022-09-23T15:24:42.064Z,50.73
2022-09-23T15:27:12.256Z,51.22
2022-09-23T15:29:50.298Z,50.39
2022-09-23T15:32:18.542Z,50.92
2022-09-23T15:35:27.442Z,51.10
2022-09-23T15:37:59.009Z,51.64
2022-09-23T16:05:19.286Z,53.17
2022-09-23T16:18:36.150Z,53.43
2022-09-23T16:21:06.611Z,53.50
2022-09-23T16:23:34.920Z,53.55
2022-09-23T16:26:03.858Z,53.51
2022-09-23T16:28:30.901Z,53.81
2022-09-23T16:30:59.446Z,53.97
2022-09-23T16:33:30.709Z,54.34
2022-09-23T16:36:02.508Z,54.28
2022-09-23T16:41:59.242Z,54.93
2022-09-23T16:52:15.058Z,55.07
2022-09-23T16:54:43.902Z,55.27
2022-09-23T16:57:15.765Z,54.62
2022-09-23T17:00:34.140Z,54.97
2022-09-23T17:03:45.069Z,54.95
2022-09-23T17:09:26.845Z,55.40
2022-09-23T17:12:16.457Z,55.70
2022-09-23T17:15:39.377Z,55.53
2022-09-23T17:18:19.512Z,55.47
2022-09-23T17:27:31.720Z,55.81
2022-09-23T17:29:59.110Z,55.41
2022-09-23T17:32:26.729Z,55.57
2022-09-23T17:34:54.384Z,55.36
2022-09-23T17:37:21.556Z,55.91
2022-09-23T17:39:48.621Z,55.41
2022-09-23T17:42:15.862Z,55.65
2022-09-23T17:44:42.939Z,55.57
2022-09-23T17:47:10.126Z,55.92
2022-09-23T17:49:37.342Z,55.76
2022-09-23T17:52:05.818Z,55.79
2022-09-23T17:54:32.946Z,55.93
2022-09-23T17:57:01.201Z,55.72
2022-09-23T17:59:28.343Z,55.63
2022-09-23T18:01:55.535Z,55.71
2022-09-23T18:04:28.650Z,55.86
2022-09-23T18:06:55.747Z,55.99
2022-09-23T18:17:06.717Z,56.06
2022-09-23T18:26:32.641Z,55.84
2022-09-23T18:33:37.500Z,56.38
2022-09-23T18:36:07.901Z,56.21
2022-09-23T18:38:36.821Z,56.63
2022-09-23T18:41:04.221Z,56.64
2022-09-23T18:43:41.374Z,56.46
2022-09-23T18:46:15.007Z,56.64
2022-09-23T18:49:01.156Z,56.27
2022-09-23T18:54:14.561Z,56.99
2022-09-23T19:22:55.254Z,56.96
2022-09-23T19:25:23.573Z,57.38
2022-09-23T19:27:50.649Z,57.66
2022-09-23T19:30:29.263Z,57.31
2022-09-23T19:54:06.148Z,58.38
2022-09-23T19:59:52.377Z,58.09
2022-09-23T20:02:38.315Z,58.22
2022-09-23T20:05:20.426Z,58.00
2022-09-23T20:08:00.488Z,58.30
2022-09-23T20:10:30.029Z,57.97
2022-09-23T20:13:02.703Z,57.72
2022-09-23T20:15:31.188Z,58.18
2022-09-23T20:25:23.504Z,57.95
2022-09-23T20:37:41.488Z,58.98
2022-09-23T20:52:37.902Z,58.56
2022-09-23T21:01:58.385Z,59.39
2022-09-23T21:04:27.288Z,59.28
2022-09-23T21:06:56.093Z,58.76
2022-09-23T21:12:51.870Z,59.55
2022-09-23T21:44:51.455Z,59.92
2022-09-23T21:47:26.616Z,60.10
2022-09-23T21:49:54.172Z,59.83
2022-09-23T21:52:26.901Z,59.84
2022-09-23T21:55:00.271Z,59.81
